createdAt,value
2022-11-04T01:05:10.404Z,100.00
2022-11-04T01:10:13.457Z,100.00
2022-11-04T01:15:16.613Z,99.68
2022-11-04T01:20:24.017Z,99.27
2022-11-04T01:25:26.027Z,98.09
2022-11-04T01:30:27.808Z,97.09
2022-11-04T01:35:29.691Z,95.27
2022-11-04T01:40:36.627Z,94.25
2022-11-04T01:45:38.353Z,95.47
2022-11-04T01:50:40.538Z,97.34
2022-11-04T01:55:49.552Z,99.32
2022-11-04T02:00:51.335Z,99.30
2022-11-04T02:05:54.735Z,98.22
2022-11-04T02:11:02.056Z,99.22
2022-11-04T02:16:10.648Z,97.09
2022-11-04T02:21:27.327Z,96.01
2022-11-04T02:26:53.318Z,96.10
2022-11-04T02:32:45.559Z,94.87
2022-11-04T02:38:03.464Z,96.24
2022-11-04T02:43:12.963Z,97.45
2022-11-04T02:48:39.002Z,97.77
2022-11-04T02:54:18.134Z,98.51
2022-11-04T02:59:42.124Z,97.78
2022-11-04T03:04:47.309Z,97.70
2022-11-04T03:09:53.479Z,98.61
2022-11-04T03:15:02.426Z,99.60
2022-11-04T03:20:10.539Z,100.00
2022-11-04T03:25:12.538Z,100.00
2022-11-04T03:30:22.269Z,100.00
2022-11-04T03:35:25.271Z,100.00
2022-11-04T03:40:27.030Z,100.00
2022-11-04T03:45:29.447Z,100.00
2022-11-04T03:50:39.610Z,100.00
2022-11-04T03:56:14.665Z,100.00
2022-11-04T04:01:50.041Z,100.00
2022-11-04T04:06:56.719Z,100.00
2022-11-04T04:12:05.677Z,100.00
2022-11-04T04:17:19.229Z,100.00
2022-11-04T04:22:47.436Z,100.00
2022-11-04T04:27:51.951Z,100.00
2022-11-04T04:32:59.569Z,100.00
2022-11-04T04:38:24.932Z,100.00
2022-11-04T04:43:45.300Z,100.00
2022-11-04T04:48:46.974Z,100.00
2022-11-04T04:53:48.585Z,100.00
2022-11-04T04:58:50.503Z,100.00
2022-11-04T05:03:52.115Z,100.00
2022-11-04T05:08:53.763Z,100.00
2022-11-04T05:13:55.468Z,100.00
2022-11-04T05:18:57.110Z,100.00
2022-11-04T05:23:58.681Z,100.00
2022-11-04T05:29:03.108Z,100.00
2022-11-04T05:34:05.915Z,100.00
2022-11-04T05:39:08.369Z,100.00
2022-11-04T05:44:10.902Z,100.00
2022-11-04T05:49:12.672Z,100.00
2022-11-04T05:54:14.321Z,100.00
2022-11-04T05:59:15.873Z,100.00
2022-11-04T06:04:19.577Z,100.00
2022-11-04T06:09:21.251Z,100.00
2022-11-04T06:14:24.199Z,100.00
2022-11-04T06:19:25.817Z,100.00
2022-11-04T06:24:27.525Z,100.00
2022-11-04T06:29:29.617Z,100.00
2022-11-04T06:34:31.299Z,100.00
2022-11-04T06:39:32.982Z,100.00
2022-11-04T06:44:35.037Z,100.00
2022-11-04T06:49:36.619Z,100.00
2022-11-04T06:54:38.245Z,100.00
2022-11-04T06:59:40.031Z,100.00
2022-11-04T07:04:41.651Z,100.00
2022-11-04T07:09:43.314Z,100.00
2022-11-04T07:14:45.141Z,100.00
2022-11-04T07:19:47.009Z,100.00
2022-11-04T07:24:49.502Z,100.00
2022-11-04T07:29:51.304Z,100.00
2022-11-04T07:34:52.876Z,100.00
2022-11-04T07:39:54.567Z,100.00
2022-11-04T07:44:56.346Z,100.00
2022-11-04T07:49:58.097Z,100.00
2022-11-04T07:54:59.765Z,100.00
2022-11-04T08:22:32.662Z,100.00
2022-11-04T08:27:34.789Z,100.00
2022-11-04T08:32:36.407Z,100.00
2022-11-04T08:37:38.625Z,100.00
2022-11-04T08:42:40.298Z,100.00
2022-11-04T08:47:41.971Z,100.00
2022-11-04T08:52:44.274Z,100.00
2022-11-04T08:57:45.894Z,100.00
2022-11-04T09:02:47.563Z,100.00
2022-11-04T09:07:49.393Z,100.00
2022-11-04T09:12:51.018Z,100.00
2022-11-04T09:17:52.726Z,100.00
2022-11-04T09:22:55.854Z,100.00
2022-11-04T09:27:57.610Z,100.00
2022-11-04T09:32:59.303Z,100.00
2022-11-04T09:38:01.681Z,100.00
2022-11-04T09:43:44.277Z,100.00
2022-11-04T09:48:50.799Z,99.38
2022-11-04T09:54:10.794Z,98.60
2022-11-04T09:59:19.153Z,98.92
2022-11-04T10:04:20.796Z,99.36
2022-11-04T10:09:57.486Z,97.38
2022-11-04T10:15:22.488Z,94.19
2022-11-04T10:20:50.701Z,95.04
2022-11-04T10:26:16.032Z,96.11
2022-11-04T10:31:19.288Z,95.86
2022-11-04T10:36:21.593Z,97.44
2022-11-04T10:41:46.012Z,97.11
2022-11-04T10:47:15.373Z,97.78
2022-11-04T10:52:22.112Z,97.36
2022-11-04T10:57:25.701Z,96.93
2022-11-04T11:02:36.486Z,95.15
2022-11-04T11:07:38.542Z,96.68
2022-11-04T11:12:51.430Z,96.96
2022-11-04T11:18:01.290Z,97.10
2022-11-04T11:23:10.002Z,96.59
2022-11-04T11:28:31.496Z,97.07
2022-11-04T11:33:34.662Z,95.63
2022-11-04T11:38:36.379Z,92.96
2022-11-04T11:43:42.769Z,91.62
2022-11-04T11:48:51.382Z,93.39
2022-11-04T11:54:14.280Z,92.04
2022-11-04T12:10:51.133Z,95.95
2022-11-04T12:16:15.903Z,95.47
2022-11-04T12:21:33.561Z,96.50
2022-11-04T12:26:53.417Z,96.41
2022-11-04T12:31:58.773Z,96.61
2022-11-04T12:37:21.019Z,96.23
2022-11-04T12:42:34.573Z,97.72
2022-11-04T12:47:42.901Z,100.00
2022-11-04T12:53:12.988Z,100.00
2022-11-04T12:58:43.400Z,100.00
2022-11-04T13:04:10.940Z,100.00
2022-11-04T13:09:18.557Z,99.91
2022-11-04T13:14:57.323Z,98.19
2022-11-04T13:20:17.139Z,97.80
2022-11-04T13:25:36.521Z,96.97
2022-11-04T13:31:06.907Z,97.54
2022-11-04T13:36:53.347Z,99.09
2022-11-04T13:42:26.037Z,99.82
2022-11-04T13:47:36.481Z,98.86
2022-11-04T13:52:52.574Z,99.19
2022-11-04T13:58:01.819Z,98.31
2022-11-04T14:03:40.243Z,99.49
2022-11-04T14:09:22.132Z,98.98
2022-11-04T14:14:25.900Z,100.00
2022-11-04T14:19:57.240Z,100.00
2022-11-04T14:25:04.618Z,100.00
2022-11-04T14:30:08.088Z,100.00
2022-11-04T14:35:18.513Z,100.00
2022-11-04T14:40:46.183Z,98.52
2022-11-04T14:45:48.027Z,96.00
2022-11-04T14:50:54.249Z,94.09
2022-11-04T14:56:16.729Z,91.03
2022-11-04T15:01:29.844Z,87.98
2022-11-04T15:06:53.281Z,86.33
2022-11-04T15:12:26.132Z,86.91
2022-11-04T15:17:32.968Z,85.36
2022-11-04T15:22:37.874Z,84.15
2022-11-04T15:27:41.230Z,83.55
2022-11-04T15:33:02.697Z,83.54
2022-11-04T15:38:04.588Z,83.21
2022-11-04T15:43:07.021Z,84.20
2022-11-04T15:48:29.905Z,83.86
2022-11-04T15:53:34.977Z,83.29
2022-11-04T15:58:36.918Z,82.93
2022-11-04T16:03:38.641Z,81.81
2022-11-04T16:08:40.401Z,80.01
2022-11-04T16:13:43.207Z,80.83
2022-11-04T16:18:51.437Z,81.31
2022-11-04T16:24:04.119Z,81.67
2022-11-04T16:29:09.712Z,81.85
2022-11-04T16:34:13.987Z,80.33
2022-11-04T16:39:15.729Z,78.72
2022-11-04T16:44:22.680Z,78.39
2022-11-04T16:49:24.529Z,82.13
2022-11-04T16:54:27.506Z,83.91
2022-11-04T16:59:29.234Z,82.22
2022-11-04T17:04:31.077Z,83.04
2022-11-04T17:09:33.896Z,83.04
2022-11-04T17:14:36.264Z,82.08
2022-11-04T17:19:38.044Z,82.68
2022-11-04T17:24:39.842Z,84.86
2022-11-04T17:29:41.609Z,85.70
2022-11-04T17:34:43.823Z,84.44
2022-11-04T17:39:45.558Z,86.52
2022-11-04T17:44:47.301Z,86.70
2022-11-04T17:49:49.040Z,85.20
2022-11-04T17:54:50.690Z,84.97
2022-11-04T17:59:52.724Z,83.81
2022-11-04T18:04:54.427Z,85.03
2022-11-04T18:09:56.816Z,84.70
2022-11-04T18:14:58.520Z,86.17
2022-11-04T18:20:00.293Z,85.64
2022-11-04T18:25:02.315Z,88.19
2022-11-04T18:30:04.465Z,88.36
2022-11-04T18:35:06.667Z,89.36
2022-11-04T18:40:09.018Z,89.30
2022-11-04T18:45:11.097Z,88.97
2022-11-04T18:50:12.741Z,89.62
2022-11-04T18:55:14.448Z,90.44
2022-11-04T19:00:17.360Z,89.99
2022-11-04T19:05:19.264Z,90.58
2022-11-04T19:10:21.012Z,90.52
2022-11-04T19:15:22.924Z,89.65
2022-11-04T19:20:26.395Z,89.30
2022-11-04T19:25:28.486Z,87.78
2022-11-04T19:30:31.440Z,87.27
2022-11-04T19:35:36.054Z,88.31
2022-11-04T19:40:37.733Z,86.99
2022-11-04T19:45:41.931Z,86.94
2022-11-04T19:50:49.138Z,87.44
2022-11-04T19:55:53.502Z,87.95
2022-11-04T20:00:55.309Z,88.48
2022-11-04T20:05:57.542Z,88.32
2022-11-04T20:11:05.571Z,88.66
2022-11-04T20:16:32.213Z,88.69
2022-11-04T20:21:36.907Z,90.09
2022-11-04T20:26:39.877Z,90.24
2022-11-04T20:31:41.723Z,89.75
2022-11-04T20:36:43.723Z,89.05
2022-11-04T20:41:46.430Z,90.02
2022-11-04T20:46:50.116Z,90.59
2022-11-04T20:51:55.420Z,89.63
2022-11-04T20:56:57.320Z,88.57
2022-11-04T21:01:59.718Z,90.65
2022-11-04T21:07:02.822Z,93.60
2022-11-04T21:12:04.944Z,94.45
2022-11-04T21:17:06.833Z,93.62
2022-11-04T21:22:08.630Z,93.88
2022-11-04T21:27:10.303Z,93.73
2022-11-04T21:32:13.394Z,93.66
2022-11-04T21:37:15.043Z,90.16
2022-11-04T21:42:16.915Z,87.92
2022-11-04T21:47:18.715Z,86.12
2022-11-04T21:52:20.426Z,86.85
2022-11-04T21:57:22.598Z,86.61
2022-11-04T22:02:24.812Z,84.14
2022-11-04T22:07:45.290Z,84.26
2022-11-04T22:12:51.097Z,83.23
2022-11-04T22:17:53.226Z,82.82
2022-11-04T22:22:54.915Z,84.07
2022-11-04T22:27:56.708Z,84.43
2022-11-04T22:32:58.328Z,82.24
2022-11-04T22:37:59.981Z,81.37
2022-11-04T22:43:01.720Z,81.33
2022-11-04T22:48:03.533Z,80.96
2022-11-04T22:53:05.472Z,81.85
2022-11-04T22:58:07.218Z,79.74
2022-11-04T23:03:16.723Z,79.42
2022-11-04T23:08:18.752Z,78.53
2022-11-04T23:13:38.948Z,79.52
2022-11-04T23:18:43.475Z,78.86
2022-11-04T23:24:03.946Z,83.12
2022-11-04T23:29:24.630Z,83.50
2022-11-04T23:34:45.134Z,85.10
2022-11-04T23:39:48.756Z,86.16
2022-11-04T23:45:14.814Z,86.09
2022-11-04T23:50:35.213Z,87.49
2022-11-04T23:55:55.671Z,86.11
